sensor_id;sensor_type;location;lat;lon;timestamp;pressure;altitude;pressure_sealevel;temperature;humidity
40570;BME280;26270;34.428;-119.710;2022-08-23T00:00:06;100904.35;;;27.65;41.98
40570;BME280;26270;34.428;-119.710;2022-08-23T00:02:34;100901.49;;;27.54;42.37
40570;BME280;26270;34.428;-119.710;2022-08-23T00:05:02;100902.27;;;27.42;42.57
40570;BME280;26270;34.428;-119.710;2022-08-23T00:07:31;100900.25;;;27.42;42.45
40570;BME280;26270;34.428;-119.710;2022-08-23T00:09:59;100900.56;;;27.17;42.94
40570;BME280;26270;34.428;-119.710;2022-08-23T00:12:27;100899.49;;;27.19;43.03
40570;BME280;26270;34.428;-119.710;2022-08-23T00:14:55;100894.62;;;27.05;43.49
40570;BME280;26270;34.428;-119.710;2022-08-23T00:17:24;100893.39;;;26.94;43.26
40570;BME280;26270;34.428;-119.710;2022-08-23T00:19:52;100892.19;;;26.86;43.77
40570;BME280;26270;34.428;-119.710;2022-08-23T00:22:20;100895.68;;;26.91;43.57
40570;BME280;26270;34.428;-119.710;2022-08-23T00:24:48;100894.29;;;26.69;43.90
40570;BME280;26270;34.428;-119.710;2022-08-23T00:27:17;100895.70;;;26.57;44.09
40570;BME280;26270;34.428;-119.710;2022-08-23T00:29:47;100890.12;;;26.53;44.17
40570;BME280;26270;34.428;-119.710;2022-08-23T00:32:19;100890.28;;;26.37;44.63
40570;BME280;26270;34.428;-119.710;2022-08-23T00:34:49;100891.19;;;26.36;44.31
40570;BME280;26270;34.428;-119.710;2022-08-23T00:37:18;100887.74;;;26.21;44.30
40570;BME280;26270;34.428;-119.710;2022-08-23T00:39:46;100884.86;;;25.95;44.72
40570;BME280;26270;34.428;-119.710;2022-08-23T00:42:27;100884.28;;;26.01;44.85
40570;BME280;26270;34.428;-119.710;2022-08-23T00:45:00;100881.82;;;26.00;45.04
40570;BME280;26270;34.428;-119.710;2022-08-23T00:47:29;100879.38;;;25.96;44.96
40570;BME280;26270;34.428;-119.710;2022-08-23T00:50:03;100874.76;;;25.99;45.19
40570;BME280;26270;34.428;-119.710;2022-08-23T00:52:39;100870.11;;;25.90;45.31
40570;BME280;26270;34.428;-119.710;2022-08-23T00:55:09;100868.79;;;25.84;45.29
40570;BME280;26270;34.428;-119.710;2022-08-23T00:57:37;100868.81;;;25.82;45.15
40570;BME280;26270;34.428;-119.710;2022-08-23T01:00:09;100864.89;;;25.72;45.71
40570;BME280;26270;34.428;-119.710;2022-08-23T01:02:37;100856.93;;;25.68;45.56
40570;BME280;26270;34.428;-119.710;2022-08-23T01:05:07;100860.31;;;25.43;46.20
40570;BME280;26270;34.428;-119.710;2022-08-23T01:07:45;100865.17;;;25.54;46.27
40570;BME280;26270;34.428;-119.710;2022-08-23T01:10:20;100864.51;;;25.06;47.16
40570;BME280;26270;34.428;-119.710;2022-08-23T01:12:53;100863.93;;;25.05;47.69
40570;BME280;26270;34.428;-119.710;2022-08-23T01:15:28;100856.23;;;24.83;49.77
40570;BME280;26270;34.428;-119.710;2022-08-23T01:18:02;100855.31;;;24.79;48.70
40570;BME280;26270;34.428;-119.710;2022-08-23T01:20:36;100854.59;;;24.75;48.93
40570;BME280;26270;34.428;-119.710;2022-08-23T01:23:23;100850.66;;;24.43;49.72
40570;BME280;26270;34.428;-119.710;2022-08-23T01:25:53;100846.89;;;24.32;49.58
40570;BME280;26270;34.428;-119.710;2022-08-23T01:28:22;100839.58;;;24.17;50.72
40570;BME280;26270;34.428;-119.710;2022-08-23T01:30:51;100835.82;;;24.09;50.53
40570;BME280;26270;34.428;-119.710;2022-08-23T01:33:19;100838.65;;;23.55;52.38
40570;BME280;26270;34.428;-119.710;2022-08-23T01:35:50;100834.14;;;23.24;54.35
40570;BME280;26270;34.428;-119.710;2022-08-23T01:38:19;100834.59;;;23.44;52.53
40570;BME280;26270;34.428;-119.710;2022-08-23T01:40:48;100829.12;;;23.28;53.60
40570;BME280;26270;34.428;-119.710;2022-08-23T01:43:17;100823.56;;;23.33;52.74
40570;BME280;26270;34.428;-119.710;2022-08-23T01:45:49;100820.43;;;22.96;54.62
40570;BME280;26270;34.428;-119.710;2022-08-23T01:48:19;100819.52;;;23.05;53.49
40570;BME280;26270;34.428;-119.710;2022-08-23T01:50:47;100819.79;;;22.85;53.36
40570;BME280;26270;34.428;-119.710;2022-08-23T01:53:17;100820.91;;;22.87;53.86
40570;BME280;26270;34.428;-119.710;2022-08-23T01:55:45;100816.28;;;22.61;54.10
40570;BME280;26270;34.428;-119.710;2022-08-23T01:58:13;100817.22;;;22.58;55.01
40570;BME280;26270;34.428;-119.710;2022-08-23T02:00:42;100818.69;;;22.58;54.53
40570;BME280;26270;34.428;-119.710;2022-08-23T02:03:10;100812.42;;;22.63;54.29
40570;BME280;26270;34.428;-119.710;2022-08-23T02:05:39;100814.76;;;22.44;54.36
40570;BME280;26270;34.428;-119.710;2022-08-23T02:08:08;100809.16;;;22.49;54.78
40570;BME280;26270;34.428;-119.710;2022-08-23T02:10:36;100808.41;;;22.53;54.74
40570;BME280;26270;34.428;-119.710;2022-08-23T02:13:05;100810.15;;;22.16;55.84
40570;BME280;26270;34.428;-119.710;2022-08-23T02:15:33;100806.82;;;22.06;55.31
40570;BME280;26270;34.428;-119.710;2022-08-23T02:18:01;100808.09;;;22.15;55.66
40570;BME280;26270;34.428;-119.710;2022-08-23T02:20:29;100800.49;;;22.00;55.57
40570;BME280;26270;34.428;-119.710;2022-08-23T02:22:57;100806.99;;;21.97;55.64
40570;BME280;26270;34.428;-119.710;2022-08-23T02:25:25;100804.25;;;21.89;55.91
40570;BME280;26270;34.428;-119.710;2022-08-23T02:27:54;100800.78;;;21.63;56.44
40570;BME280;26270;34.428;-119.710;2022-08-23T02:30:22;100803.34;;;21.62;56.66
40570;BME280;26270;34.428;-119.710;2022-08-23T02:32:50;100798.24;;;21.62;56.81
40570;BME280;26270;34.428;-119.710;2022-08-23T02:35:18;100797.96;;;21.63;56.96
40570;BME280;26270;34.428;-119.710;2022-08-23T02:37:47;100800.82;;;21.60;57.12
40570;BME280;26270;34.428;-119.710;2022-08-23T02:40:15;100801.89;;;21.53;57.30
40570;BME280;26270;34.428;-119.710;2022-08-23T02:42:43;100804.04;;;21.42;57.67
40570;BME280;26270;34.428;-119.710;2022-08-23T02:45:12;100801.86;;;21.41;57.68
40570;BME280;26270;34.428;-119.710;2022-08-23T02:47:40;100802.13;;;21.44;58.19
40570;BME280;26270;34.428;-119.710;2022-08-23T02:50:09;100799.85;;;21.32;58.36
40570;BME280;26270;34.428;-119.710;2022-08-23T02:52:37;100804.96;;;21.09;58.67
40570;BME280;26270;34.428;-119.710;2022-08-23T02:55:06;100811.48;;;21.16;58.54
40570;BME280;26270;34.428;-119.710;2022-08-23T02:57:35;100809.50;;;21.18;58.58
40570;BME280;26270;34.428;-119.710;2022-08-23T03:00:05;100813.63;;;21.12;59.23
40570;BME280;26270;34.428;-119.710;2022-08-23T03:02:34;100810.49;;;21.17;59.10
40570;BME280;26270;34.428;-119.710;2022-08-23T03:05:03;100807.32;;;21.18;58.93
40570;BME280;26270;34.428;-119.710;2022-08-23T03:07:31;100809.62;;;21.05;59.60
40570;BME280;26270;34.428;-119.710;2022-08-23T03:09:59;100807.89;;;20.93;59.40
40570;BME280;26270;34.428;-119.710;2022-08-23T03:12:27;100812.32;;;21.03;59.56
40570;BME280;26270;34.428;-119.710;2022-08-23T03:14:56;100805.85;;;20.96;59.59
40570;BME280;26270;34.428;-119.710;2022-08-23T03:17:24;100806.43;;;20.99;59.75
40570;BME280;26270;34.428;-119.710;2022-08-23T03:19:53;100802.23;;;20.96;59.88
40570;BME280;26270;34.428;-119.710;2022-08-23T03:22:21;100809.82;;;20.71;60.79
40570;BME280;26270;34.428;-119.710;2022-08-23T03:24:49;100801.53;;;20.84;60.19
40570;BME280;26270;34.428;-119.710;2022-08-23T03:27:18;100807.63;;;21.00;59.96
40570;BME280;26270;34.428;-119.710;2022-08-23T03:29:46;100803.14;;;20.82;60.20
40570;BME280;26270;34.428;-119.710;2022-08-23T03:32:14;100810.84;;;20.84;60.67
40570;BME280;26270;34.428;-119.710;2022-08-23T03:34:43;100805.42;;;20.87;60.01
40570;BME280;26270;34.428;-119.710;2022-08-23T03:37:11;100802.70;;;20.94;60.26
40570;BME280;26270;34.428;-119.710;2022-08-23T03:39:40;100817.48;;;20.65;60.77
40570;BME280;26270;34.428;-119.710;2022-08-23T03:42:07;100812.55;;;20.79;60.77
40570;BME280;26270;34.428;-119.710;2022-08-23T03:44:36;100817.11;;;20.60;61.31
40570;BME280;26270;34.428;-119.710;2022-08-23T03:47:05;100812.78;;;20.63;60.85
40570;BME280;26270;34.428;-119.710;2022-08-23T03:49:33;100813.81;;;20.81;60.74
40570;BME280;26270;34.428;-119.710;2022-08-23T03:52:03;100823.03;;;20.66;61.29
40570;BME280;26270;34.428;-119.710;2022-08-23T03:54:30;100821.57;;;20.58;61.49
40570;BME280;26270;34.428;-119.710;2022-08-23T03:57:00;100828.22;;;20.51;61.90
40570;BME280;26270;34.428;-119.710;2022-08-23T03:59:30;100817.47;;;20.63;61.60
40570;BME280;26270;34.428;-119.710;2022-08-23T04:03:19;100823.18;;;20.54;61.58
40570;BME280;26270;34.428;-119.710;2022-08-23T04:05:47;100822.02;;;20.42;62.24
40570;BME280;26270;34.428;-119.710;2022-08-23T04:08:15;100827.12;;;20.53;61.73
40570;BME280;26270;34.428;-119.710;2022-08-23T04:10:43;100828.65;;;20.52;62.02
40570;BME280;26270;34.428;-119.710;2022-08-23T04:13:12;100829.73;;;20.61;62.44
40570;BME280;26270;34.428;-119.710;2022-08-23T04:15:40;100832.52;;;20.47;63.24
40570;BME280;26270;34.428;-119.710;2022-08-23T04:18:08;100832.75;;;20.55;62.43
40570;BME280;26270;34.428;-119.710;2022-08-23T04:20:36;100833.30;;;20.51;65.28
40570;BME280;26270;34.428;-119.710;2022-08-23T04:23:05;100836.30;;;20.40;62.83
40570;BME280;26270;34.428;-119.710;2022-08-23T04:25:33;100835.54;;;20.38;62.61
40570;BME280;26270;34.428;-119.710;2022-08-23T04:28:02;100837.21;;;20.64;61.96
40570;BME280;26270;34.428;-119.710;2022-08-23T04:30:31;100841.89;;;20.51;62.85
40570;BME280;26270;34.428;-119.710;2022-08-23T04:33:00;100837.19;;;20.36;63.24
40570;BME280;26270;34.428;-119.710;2022-08-23T04:35:28;100835.60;;;20.44;62.81
40570;BME280;26270;34.428;-119.710;2022-08-23T04:37:56;100831.70;;;20.41;62.71
40570;BME280;26270;34.428;-119.710;2022-08-23T04:40:25;100846.44;;;20.30;65.98
40570;BME280;26270;34.428;-119.710;2022-08-23T04:42:53;100838.09;;;20.38;63.59
40570;BME280;26270;34.428;-119.710;2022-08-23T04:45:21;100838.98;;;20.29;63.40
40570;BME280;26270;34.428;-119.710;2022-08-23T04:47:49;100836.57;;;20.48;63.29
40570;BME280;26270;34.428;-119.710;2022-08-23T04:50:18;100841.19;;;20.23;65.66
40570;BME280;26270;34.428;-119.710;2022-08-23T04:52:46;100844.42;;;20.37;64.18
40570;BME280;26270;34.428;-119.710;2022-08-23T04:55:15;100829.52;;;20.45;63.71
40570;BME280;26270;34.428;-119.710;2022-08-23T04:57:43;100847.64;;;20.18;66.41
40570;BME280;26270;34.428;-119.710;2022-08-23T05:00:14;100835.12;;;20.34;63.13
40570;BME280;26270;34.428;-119.710;2022-08-23T05:02:43;100834.63;;;20.33;63.12
40570;BME280;26270;34.428;-119.710;2022-08-23T05:05:11;100844.29;;;20.45;63.23
40570;BME280;26270;34.428;-119.710;2022-08-23T05:07:40;100842.28;;;20.26;64.68
40570;BME280;26270;34.428;-119.710;2022-08-23T05:10:11;100840.66;;;20.41;62.56
40570;BME280;26270;34.428;-119.710;2022-08-23T05:12:40;100850.32;;;20.43;62.69
40570;BME280;26270;34.428;-119.710;2022-08-23T05:15:09;100843.91;;;20.31;62.83
40570;BME280;26270;34.428;-119.710;2022-08-23T05:17:38;100839.98;;;20.22;64.05
40570;BME280;26270;34.428;-119.710;2022-08-23T05:20:08;100838.53;;;20.29;63.18
40570;BME280;26270;34.428;-119.710;2022-08-23T05:22:38;100840.53;;;20.25;62.97
40570;BME280;26270;34.428;-119.710;2022-08-23T05:25:08;100833.17;;;20.25;62.96
40570;BME280;26270;34.428;-119.710;2022-08-23T05:27:36;100836.92;;;20.30;62.91
40570;BME280;26270;34.428;-119.710;2022-08-23T05:30:06;100839.83;;;20.08;63.26
40570;BME280;26270;34.428;-119.710;2022-08-23T05:32:34;100830.12;;;20.16;63.22
40570;BME280;26270;34.428;-119.710;2022-08-23T05:35:03;100827.61;;;19.89;63.87
40570;BME280;26270;34.428;-119.710;2022-08-23T05:37:32;100821.96;;;20.09;63.90
40570;BME280;26270;34.428;-119.710;2022-08-23T05:40:00;100818.94;;;19.95;63.84
40570;BME280;26270;34.428;-119.710;2022-08-23T05:42:28;100815.66;;;20.08;63.40
40570;BME280;26270;34.428;-119.710;2022-08-23T05:44:56;100813.24;;;20.13;63.30
40570;BME280;26270;34.428;-119.710;2022-08-23T05:47:24;100810.78;;;19.94;63.75
40570;BME280;26270;34.428;-119.710;2022-08-23T05:49:53;100814.02;;;20.21;63.23
40570;BME280;26270;34.428;-119.710;2022-08-23T05:52:21;100812.48;;;20.02;63.45
40570;BME280;26270;34.428;-119.710;2022-08-23T05:54:49;100804.19;;;20.05;64.08
40570;BME280;26270;34.428;-119.710;2022-08-23T05:57:18;100807.76;;;20.04;63.73
40570;BME280;26270;34.428;-119.710;2022-08-23T05:59:46;100809.51;;;19.95;64.04
40570;BME280;26270;34.428;-119.710;2022-08-23T06:02:14;100810.46;;;20.16;63.69
40570;BME280;26270;34.428;-119.710;2022-08-23T06:04:42;100808.54;;;19.87;64.18
40570;BME280;26270;34.428;-119.710;2022-08-23T06:07:11;100810.71;;;19.94;64.06
40570;BME280;26270;34.428;-119.710;2022-08-23T06:09:39;100809.37;;;20.12;63.72
40570;BME280;26270;34.428;-119.710;2022-08-23T06:12:08;100809.12;;;20.07;63.76
40570;BME280;26270;34.428;-119.710;2022-08-23T06:14:36;100806.35;;;19.89;63.94
40570;BME280;26270;34.428;-119.710;2022-08-23T06:17:04;100803.88;;;19.83;64.25
40570;BME280;26270;34.428;-119.710;2022-08-23T06:19:32;100805.99;;;19.97;64.15
40570;BME280;26270;34.428;-119.710;2022-08-23T06:22:00;100811.68;;;20.06;63.84
40570;BME280;26270;34.428;-119.710;2022-08-23T06:24:28;100809.98;;;19.84;63.77
40570;BME280;26270;34.428;-119.710;2022-08-23T06:26:57;100806.38;;;19.89;64.04
40570;BME280;26270;34.428;-119.710;2022-08-23T06:29:25;100802.85;;;19.89;64.02
40570;BME280;26270;34.428;-119.710;2022-08-23T06:31:53;100808.25;;;19.92;63.76
40570;BME280;26270;34.428;-119.710;2022-08-23T06:34:24;100814.78;;;19.97;63.93
40570;BME280;26270;34.428;-119.710;2022-08-23T06:36:55;100808.03;;;19.98;64.26
40570;BME280;26270;34.428;-119.710;2022-08-23T06:39:25;100801.03;;;20.05;63.95
40570;BME280;26270;34.428;-119.710;2022-08-23T06:41:58;100807.92;;;20.14;63.98
40570;BME280;26270;34.428;-119.710;2022-08-23T06:44:32;100809.61;;;19.94;64.22
40570;BME280;26270;34.428;-119.710;2022-08-23T06:47:03;100804.23;;;19.93;64.05
40570;BME280;26270;34.428;-119.710;2022-08-23T06:49:31;100809.88;;;20.00;63.71
40570;BME280;26270;34.428;-119.710;2022-08-23T06:52:00;100809.69;;;19.93;64.07
40570;BME280;26270;34.428;-119.710;2022-08-23T06:54:31;100810.72;;;19.83;64.09
40570;BME280;26270;34.428;-119.710;2022-08-23T06:57:00;100807.73;;;20.03;64.02
40570;BME280;26270;34.428;-119.710;2022-08-23T06:59:29;100814.06;;;19.86;64.19
40570;BME280;26270;34.428;-119.710;2022-08-23T07:01:59;100809.96;;;19.98;63.96
40570;BME280;26270;34.428;-119.710;2022-08-23T07:04:29;100809.60;;;19.95;64.84
40570;BME280;26270;34.428;-119.710;2022-08-23T07:06:58;100808.86;;;19.94;64.68
40570;BME280;26270;34.428;-119.710;2022-08-23T07:09:27;100813.02;;;19.83;64.77
40570;BME280;26270;34.428;-119.710;2022-08-23T07:11:56;100816.30;;;19.79;65.02
40570;BME280;26270;34.428;-119.710;2022-08-23T07:14:24;100808.95;;;19.68;65.04
40570;BME280;26270;34.428;-119.710;2022-08-23T07:16:55;100818.76;;;19.62;65.82
40570;BME280;26270;34.428;-119.710;2022-08-23T07:19:25;100815.78;;;19.68;65.75
40570;BME280;26270;34.428;-119.710;2022-08-23T07:21:54;100816.78;;;19.70;65.76
40570;BME280;26270;34.428;-119.710;2022-08-23T07:24:22;100816.00;;;19.06;67.73
40570;BME280;26270;34.428;-119.710;2022-08-23T07:26:51;100814.62;;;19.55;65.94
40570;BME280;26270;34.428;-119.710;2022-08-23T07:29:21;100807.11;;;19.58;66.28
40570;BME280;26270;34.428;-119.710;2022-08-23T07:31:51;100806.90;;;19.38;66.85
40570;BME280;26270;34.428;-119.710;2022-08-23T07:34:21;100801.15;;;19.17;68.03
40570;BME280;26270;34.428;-119.710;2022-08-23T07:36:50;100811.87;;;19.02;68.46
40570;BME280;26270;34.428;-119.710;2022-08-23T07:39:20;100802.29;;;19.27;67.39
40570;BME280;26270;34.428;-119.710;2022-08-23T07:41:49;100804.17;;;19.33;66.85
40570;BME280;26270;34.428;-119.710;2022-08-23T07:44:17;100808.04;;;19.47;66.18
40570;BME280;26270;34.428;-119.710;2022-08-23T07:46:46;100808.22;;;19.42;67.10
40570;BME280;26270;34.428;-119.710;2022-08-23T07:49:15;100807.44;;;19.55;66.39
40570;BME280;26270;34.428;-119.710;2022-08-23T07:51:47;100812.81;;;19.61;66.24
40570;BME280;26270;34.428;-119.710;2022-08-23T07:54:16;100803.69;;;19.20;67.25
40570;BME280;26270;34.428;-119.710;2022-08-23T07:56:44;100807.21;;;19.27;66.44
40570;BME280;26270;34.428;-119.710;2022-08-23T07:59:14;100804.76;;;19.31;66.85
40570;BME280;26270;34.428;-119.710;2022-08-23T08:01:43;100803.65;;;19.48;66.13
40570;BME280;26270;34.428;-119.710;2022-08-23T08:04:11;100797.56;;;19.37;65.95
40570;BME280;26270;34.428;-119.710;2022-08-23T08:06:43;100792.27;;;19.40;66.05
40570;BME280;26270;34.428;-119.710;2022-08-23T08:09:13;100792.65;;;19.43;66.05
40570;BME280;26270;34.428;-119.710;2022-08-23T08:11:44;100786.42;;;19.10;67.79
40570;BME280;26270;34.428;-119.710;2022-08-23T08:14:13;100786.23;;;19.08;67.16
40570;BME280;26270;34.428;-119.710;2022-08-23T08:16:43;100783.23;;;19.00;67.86
40570;BME280;26270;34.428;-119.710;2022-08-23T08:19:13;100782.62;;;19.53;66.28
40570;BME280;26270;34.428;-119.710;2022-08-23T08:21:42;100781.42;;;19.19;66.27
40570;BME280;26270;34.428;-119.710;2022-08-23T08:24:13;100781.41;;;19.22;66.22
40570;BME280;26270;34.428;-119.710;2022-08-23T08:26:43;100776.60;;;19.37;66.12
40570;BME280;26270;34.428;-119.710;2022-08-23T08:29:12;100771.89;;;19.46;65.63
40570;BME280;26270;34.428;-119.710;2022-08-23T08:31:42;100774.46;;;19.37;65.62
40570;BME280;26270;34.428;-119.710;2022-08-23T08:34:10;100770.20;;;19.30;66.43
40570;BME280;26270;34.428;-119.710;2022-08-23T08:36:41;100768.16;;;19.03;66.97
40570;BME280;26270;34.428;-119.710;2022-08-23T08:39:11;100765.65;;;19.15;66.97
40570;BME280;26270;34.428;-119.710;2022-08-23T08:41:54;100768.59;;;19.38;66.39
40570;BME280;26270;34.428;-119.710;2022-08-23T08:44:34;100764.88;;;19.46;66.00
40570;BME280;26270;34.428;-119.710;2022-08-23T08:47:09;100768.54;;;19.33;66.05
40570;BME280;26270;34.428;-119.710;2022-08-23T08:49:43;100765.72;;;19.22;66.49
40570;BME280;26270;34.428;-119.710;2022-08-23T08:52:20;100767.27;;;19.06;66.23
40570;BME280;26270;34.428;-119.710;2022-08-23T08:54:55;100760.08;;;19.26;65.81
40570;BME280;26270;34.428;-119.710;2022-08-23T08:57:33;100758.70;;;19.36;65.63
40570;BME280;26270;34.428;-119.710;2022-08-23T09:00:08;100755.07;;;19.38;65.72
40570;BME280;26270;34.428;-119.710;2022-08-23T09:02:36;100753.16;;;19.32;65.56
40570;BME280;26270;34.428;-119.710;2022-08-23T09:05:12;100752.61;;;19.21;65.99
40570;BME280;26270;34.428;-119.710;2022-08-23T09:07:49;100747.56;;;18.97;67.53
40570;BME280;26270;34.428;-119.710;2022-08-23T09:10:38;100745.93;;;19.10;67.10
40570;BME280;26270;34.428;-119.710;2022-08-23T09:13:28;100744.03;;;19.02;67.54
40570;BME280;26270;34.428;-119.710;2022-08-23T09:16:06;100745.27;;;19.30;66.75
40570;BME280;26270;34.428;-119.710;2022-08-23T09:18:38;100739.81;;;19.17;66.85
40570;BME280;26270;34.428;-119.710;2022-08-23T09:21:08;100732.96;;;19.20;66.60
40570;BME280;26270;34.428;-119.710;2022-08-23T09:23:40;100725.77;;;19.19;66.74
40570;BME280;26270;34.428;-119.710;2022-08-23T09:26:20;100724.07;;;19.10;66.04
40570;BME280;26270;34.428;-119.710;2022-08-23T09:28:51;100719.92;;;19.08;66.34
40570;BME280;26270;34.428;-119.710;2022-08-23T09:31:38;100721.14;;;19.17;66.79
40570;BME280;26270;34.428;-119.710;2022-08-23T09:34:07;100719.85;;;18.99;67.14
40570;BME280;26270;34.428;-119.710;2022-08-23T09:36:37;100726.29;;;19.20;66.51
40570;BME280;26270;34.428;-119.710;2022-08-23T09:39:08;100725.86;;;19.33;65.90
40570;BME280;26270;34.428;-119.710;2022-08-23T09:41:50;100728.74;;;19.34;65.99
40570;BME280;26270;34.428;-119.710;2022-08-23T09:44:32;100733.92;;;19.11;67.11
40570;BME280;26270;34.428;-119.710;2022-08-23T09:47:11;100725.00;;;19.14;66.78
40570;BME280;26270;34.428;-119.710;2022-08-23T09:49:42;100721.07;;;19.11;66.20
40570;BME280;26270;34.428;-119.710;2022-08-23T09:52:18;100715.03;;;19.31;65.93
40570;BME280;26270;34.428;-119.710;2022-08-23T09:54:55;100715.56;;;19.32;65.93
40570;BME280;26270;34.428;-119.710;2022-08-23T09:57:26;100713.38;;;19.29;65.54
40570;BME280;26270;34.428;-119.710;2022-08-23T10:00:01;100707.12;;;19.23;65.93
40570;BME280;26270;34.428;-119.710;2022-08-23T10:02:44;100706.06;;;19.31;65.69
40570;BME280;26270;34.428;-119.710;2022-08-23T10:05:27;100709.88;;;19.12;66.21
40570;BME280;26270;34.428;-119.710;2022-08-23T10:07:57;100711.47;;;19.15;66.07
40570;BME280;26270;34.428;-119.710;2022-08-23T10:10:30;100717.95;;;19.43;66.26
40570;BME280;26270;34.428;-119.710;2022-08-23T10:13:00;100721.30;;;19.22;66.24
40570;BME280;26270;34.428;-119.710;2022-08-23T10:15:39;100720.97;;;19.30;66.15
40570;BME280;26270;34.428;-119.710;2022-08-23T10:18:16;100718.16;;;19.13;66.78
40570;BME280;26270;34.428;-119.710;2022-08-23T10:20:56;100715.06;;;19.09;66.56
40570;BME280;26270;34.428;-119.710;2022-08-23T10:23:37;100715.67;;;18.89;67.25
40570;BME280;26270;34.428;-119.710;2022-08-23T10:26:09;100716.36;;;19.11;67.06
40570;BME280;26270;34.428;-119.710;2022-08-23T10:28:50;100717.52;;;19.36;66.82
40570;BME280;26270;34.428;-119.710;2022-08-23T10:31:30;100719.10;;;19.21;66.58
40570;BME280;26270;34.428;-119.710;2022-08-23T10:34:12;100719.19;;;19.29;66.96
40570;BME280;26270;34.428;-119.710;2022-08-23T10:36:54;100715.07;;;19.28;67.34
40570;BME280;26270;34.428;-119.710;2022-08-23T10:39:27;100713.76;;;19.20;67.23
40570;BME280;26270;34.428;-119.710;2022-08-23T10:42:02;100709.95;;;19.19;67.38
40570;BME280;26270;34.428;-119.710;2022-08-23T10:44:43;100706.52;;;19.20;66.93
40570;BME280;26270;34.428;-119.710;2022-08-23T10:47:19;100706.67;;;19.18;66.68
40570;BME280;26270;34.428;-119.710;2022-08-23T10:49:54;100703.85;;;19.22;66.21
40570;BME280;26270;34.428;-119.710;2022-08-23T10:52:30;100706.22;;;19.25;65.91
40570;BME280;26270;34.428;-119.710;2022-08-23T10:55:03;100702.09;;;19.18;66.27
40570;BME280;26270;34.428;-119.710;2022-08-23T10:57:35;100707.14;;;19.20;66.65
40570;BME280;26270;34.428;-119.710;2022-08-23T11:00:07;100704.00;;;19.18;66.63
40570;BME280;26270;34.428;-119.710;2022-08-23T11:02:43;100702.64;;;19.31;65.94
40570;BME280;26270;34.428;-119.710;2022-08-23T11:05:21;100703.02;;;19.03;66.85
40570;BME280;26270;34.428;-119.710;2022-08-23T11:08:00;100703.20;;;19.33;66.25
40570;BME280;26270;34.428;-119.710;2022-08-23T11:10:41;100699.60;;;19.24;66.14
40570;BME280;26270;34.428;-119.710;2022-08-23T11:13:21;100696.63;;;19.18;66.56
40570;BME280;26270;34.428;-119.710;2022-08-23T11:16:01;100693.99;;;19.31;66.26
40570;BME280;26270;34.428;-119.710;2022-08-23T11:18:40;100689.74;;;19.32;66.44
40570;BME280;26270;34.428;-119.710;2022-08-23T11:21:40;100690.31;;;19.22;67.16
40570;BME280;26270;34.428;-119.710;2022-08-23T11:24:36;100685.47;;;19.29;66.91
40570;BME280;26270;34.428;-119.710;2022-08-23T11:27:34;100677.41;;;19.47;66.22
40570;BME280;26270;34.428;-119.710;2022-08-23T11:32:26;100670.71;;;19.54;66.27
40570;BME280;26270;34.428;-119.710;2022-08-23T11:35:05;100667.34;;;19.36;66.47
40570;BME280;26270;34.428;-119.710;2022-08-23T11:37:55;100660.84;;;19.48;66.81
40570;BME280;26270;34.428;-119.710;2022-08-23T11:40:40;100657.56;;;19.55;66.69
40570;BME280;26270;34.428;-119.710;2022-08-23T11:43:19;100656.21;;;19.61;66.96
40570;BME280;26270;34.428;-119.710;2022-08-23T11:45:50;100649.40;;;19.33;67.70
40570;BME280;26270;34.428;-119.710;2022-08-23T11:48:34;100650.11;;;19.54;67.34
40570;BME280;26270;34.428;-119.710;2022-08-23T11:51:16;100644.75;;;19.33;67.82
40570;BME280;26270;34.428;-119.710;2022-08-23T11:54:00;100643.90;;;19.50;68.18
40570;BME280;26270;34.428;-119.710;2022-08-23T11:56:54;100640.36;;;18.97;70.17
40570;BME280;26270;34.428;-119.710;2022-08-23T11:59:37;100630.73;;;19.32;68.33
40570;BME280;26270;34.428;-119.710;2022-08-23T12:02:32;100625.55;;;19.30;68.21
40570;BME280;26270;34.428;-119.710;2022-08-23T12:05:04;100627.77;;;19.30;68.00
40570;BME280;26270;34.428;-119.710;2022-08-23T12:07:46;100634.12;;;19.34;68.20
40570;BME280;26270;34.428;-119.710;2022-08-23T12:10:56;100630.38;;;19.16;67.81
40570;BME280;26270;34.428;-119.710;2022-08-23T12:13:29;100631.02;;;19.10;67.57
40570;BME280;26270;34.428;-119.710;2022-08-23T12:16:09;100635.77;;;19.29;67.58
40570;BME280;26270;34.428;-119.710;2022-08-23T12:18:43;100641.75;;;19.25;67.71
40570;BME280;26270;34.428;-119.710;2022-08-23T12:21:20;100643.14;;;19.36;67.41
40570;BME280;26270;34.428;-119.710;2022-08-23T12:23:51;100654.72;;;19.01;67.76
40570;BME280;26270;34.428;-119.710;2022-08-23T12:26:26;100663.26;;;19.06;67.27
40570;BME280;26270;34.428;-119.710;2022-08-23T12:29:03;100670.68;;;19.30;67.25
40570;BME280;26270;34.428;-119.710;2022-08-23T12:31:37;100664.10;;;19.03;67.67
40570;BME280;26270;34.428;-119.710;2022-08-23T12:34:17;100671.43;;;19.11;67.72
40570;BME280;26270;34.428;-119.710;2022-08-23T12:36:58;100670.39;;;19.00;67.87
40570;BME280;26270;34.428;-119.710;2022-08-23T12:39:33;100675.00;;;19.02;67.86
40570;BME280;26270;34.428;-119.710;2022-08-23T12:42:06;100683.82;;;18.99;67.96
40570;BME280;26270;34.428;-119.710;2022-08-23T12:44:36;100689.22;;;19.13;67.96
40570;BME280;26270;34.428;-119.710;2022-08-23T12:47:14;100693.79;;;19.18;68.01